Los Alamos, New Mexico
Current Conditions -  °F | °C
As of 5:15 PM on Monday 20 Oct 2014 (Local Time) from KLAM Reporting Station
Scattered Clouds Scattered Clouds  
Wind Chill: 61°   Ceiling: Unl
Heat Index: 61°   Visibility: 10mi
Dew Point: 37°   Wind: 9mph
Humidity: 40%   Direction: 200°SSW
Pressure: 30.21"   Gusts: NA
Location:  35.88°N, 106.3°W
Report Text: KLAM 202315Z AUTO 20008KT 10SM SCT110 16/03 A3021 RMK AO2 T01620026
Loading
Personal Weather Stations






























Interactive Weather Map
Tropical Storm Tracking
New forecast layout! Learn more

10-Day Weather Forecast

Advertisements
Track Severe Weather on mobile